sensor_id;sensor_type;location;lat;lon;timestamp;pressure;altitude;pressure_sealevel;temperature;humidity
37202;BME280;37799;52.390;6.136;2023-02-28T00:00:04;103183.75;;;1.33;100.00
37202;BME280;37799;52.390;6.136;2023-02-28T00:02:39;103195.72;;;1.34;100.00
37202;BME280;37799;52.390;6.136;2023-02-28T00:05:07;103182.16;;;1.35;100.00
37202;BME280;37799;52.390;6.136;2023-02-28T00:07:33;103176.91;;;1.32;100.00
37202;BME280;37799;52.390;6.136;2023-02-28T00:09:59;103169.06;;;1.29;100.00
37202;BME280;37799;52.390;6.136;2023-02-28T00:12:25;103167.41;;;1.29;100.00
37202;BME280;37799;52.390;6.136;2023-02-28T00:14:50;103170.06;;;1.31;100.00
37202;BME280;37799;52.390;6.136;2023-02-28T00:17:16;103162.63;;;1.35;100.00
37202;BME280;37799;52.390;6.136;2023-02-28T00:19:49;103166.78;;;1.33;100.00
37202;BME280;37799;52.390;6.136;2023-02-28T00:22:16;103171.44;;;1.42;100.00
37202;BME280;37799;52.390;6.136;2023-02-28T00:24:41;103169.25;;;1.50;100.00
37202;BME280;37799;52.390;6.136;2023-02-28T00:27:06;103174.44;;;1.51;100.00
37202;BME280;37799;52.390;6.136;2023-02-28T00:29:32;103175.38;;;1.53;100.00
37202;BME280;37799;52.390;6.136;2023-02-28T00:31:57;103172.97;;;1.56;100.00
37202;BME280;37799;52.390;6.136;2023-02-28T00:34:22;103169.78;;;1.60;100.00
37202;BME280;37799;52.390;6.136;2023-02-28T00:36:48;103178.31;;;1.61;100.00
37202;BME280;37799;52.390;6.136;2023-02-28T00:39:16;103174.16;;;1.63;100.00
37202;BME280;37799;52.390;6.136;2023-02-28T00:41:42;103164.06;;;1.66;100.00
37202;BME280;37799;52.390;6.136;2023-02-28T00:44:07;103173.56;;;1.68;100.00
37202;BME280;37799;52.390;6.136;2023-02-28T00:46:32;103174.53;;;1.70;100.00
37202;BME280;37799;52.390;6.136;2023-02-28T00:48:58;103177.31;;;1.75;100.00
37202;BME280;37799;52.390;6.136;2023-02-28T00:51:23;103176.56;;;1.77;100.00
37202;BME280;37799;52.390;6.136;2023-02-28T00:53:48;103174.94;;;1.80;100.00
37202;BME280;37799;52.390;6.136;2023-02-28T00:56:14;103175.75;;;1.78;100.00
37202;BME280;37799;52.390;6.136;2023-02-28T00:58:39;103174.81;;;1.76;100.00
37202;BME280;37799;52.390;6.136;2023-02-28T01:01:05;103170.66;;;1.78;100.00
37202;BME280;37799;52.390;6.136;2023-02-28T01:03:30;103172.41;;;1.80;100.00
37202;BME280;37799;52.390;6.136;2023-02-28T01:05:55;103163.78;;;1.77;100.00
37202;BME280;37799;52.390;6.136;2023-02-28T01:08:21;103169.69;;;1.76;100.00
37202;BME280;37799;52.390;6.136;2023-02-28T01:10:47;103175.63;;;1.75;100.00
37202;BME280;37799;52.390;6.136;2023-02-28T01:13:13;103175.75;;;1.78;100.00
37202;BME280;37799;52.390;6.136;2023-02-28T01:15:42;103167.00;;;1.73;100.00
37202;BME280;37799;52.390;6.136;2023-02-28T01:18:08;103170.22;;;1.69;100.00
37202;BME280;37799;52.390;6.136;2023-02-28T01:20:36;103165.25;;;1.72;100.00
37202;BME280;37799;52.390;6.136;2023-02-28T01:23:02;103167.75;;;1.71;100.00
37202;BME280;37799;52.390;6.136;2023-02-28T01:25:27;103166.13;;;1.73;100.00
37202;BME280;37799;52.390;6.136;2023-02-28T01:27:52;103165.25;;;1.72;100.00
37202;BME280;37799;52.390;6.136;2023-02-28T01:30:18;103168.91;;;1.77;100.00
37202;BME280;37799;52.390;6.136;2023-02-28T01:32:43;103163.72;;;1.76;100.00
37202;BME280;37799;52.390;6.136;2023-02-28T01:35:08;103165.41;;;1.75;100.00
37202;BME280;37799;52.390;6.136;2023-02-28T01:37:34;103164.66;;;1.78;100.00
37202;BME280;37799;52.390;6.136;2023-02-28T01:39:59;103154.59;;;1.81;100.00
37202;BME280;37799;52.390;6.136;2023-02-28T01:42:24;103162.19;;;1.80;100.00
37202;BME280;37799;52.390;6.136;2023-02-28T01:47:21;103152.84;;;1.80;100.00
37202;BME280;37799;52.390;6.136;2023-02-28T01:49:48;103155.47;;;1.82;100.00
37202;BME280;37799;52.390;6.136;2023-02-28T01:52:14;103146.84;;;1.80;100.00
37202;BME280;37799;52.390;6.136;2023-02-28T01:54:45;103143.88;;;1.88;100.00
37202;BME280;37799;52.390;6.136;2023-02-28T01:57:15;103140.81;;;1.95;100.00
37202;BME280;37799;52.390;6.136;2023-02-28T02:00:09;103140.56;;;1.91;100.00
37202;BME280;37799;52.390;6.136;2023-02-28T02:02:36;103138.69;;;1.87;100.00
37202;BME280;37799;52.390;6.136;2023-02-28T02:05:08;103144.59;;;1.86;100.00
37202;BME280;37799;52.390;6.136;2023-02-28T02:07:37;103142.19;;;1.89;100.00
37202;BME280;37799;52.390;6.136;2023-02-28T02:15:16;103140.63;;;1.92;100.00
37202;BME280;37799;52.390;6.136;2023-02-28T02:17:45;103143.94;;;1.90;100.00
37202;BME280;37799;52.390;6.136;2023-02-28T02:23:27;103132.97;;;1.92;100.00
37202;BME280;37799;52.390;6.136;2023-02-28T02:26:06;103133.53;;;2.04;100.00
37202;BME280;37799;52.390;6.136;2023-02-28T02:31:23;103148.59;;;1.98;100.00
37202;BME280;37799;52.390;6.136;2023-02-28T02:36:33;103137.50;;;1.98;100.00
37202;BME280;37799;52.390;6.136;2023-02-28T02:39:28;103142.88;;;2.04;100.00
37202;BME280;37799;52.390;6.136;2023-02-28T02:41:59;103142.75;;;2.01;100.00
37202;BME280;37799;52.390;6.136;2023-02-28T02:44:30;103150.41;;;2.01;100.00
37202;BME280;37799;52.390;6.136;2023-02-28T02:47:08;103148.22;;;2.09;100.00
37202;BME280;37799;52.390;6.136;2023-02-28T02:49:36;103148.13;;;2.07;100.00
37202;BME280;37799;52.390;6.136;2023-02-28T02:52:06;103144.75;;;2.08;100.00
37202;BME280;37799;52.390;6.136;2023-02-28T02:54:42;103142.06;;;2.05;100.00
37202;BME280;37799;52.390;6.136;2023-02-28T02:57:17;103150.16;;;2.14;100.00
37202;BME280;37799;52.390;6.136;2023-02-28T02:59:46;103146.94;;;2.18;100.00
37202;BME280;37799;52.390;6.136;2023-02-28T03:02:14;103154.53;;;2.17;100.00
37202;BME280;37799;52.390;6.136;2023-02-28T03:04:50;103163.09;;;2.17;100.00
37202;BME280;37799;52.390;6.136;2023-02-28T03:07:17;103159.94;;;2.23;100.00
37202;BME280;37799;52.390;6.136;2023-02-28T03:09:53;103168.50;;;2.23;100.00
37202;BME280;37799;52.390;6.136;2023-02-28T03:12:20;103171.38;;;2.31;100.00
37202;BME280;37799;52.390;6.136;2023-02-28T03:22:46;103167.13;;;2.31;100.00
37202;BME280;37799;52.390;6.136;2023-02-28T03:28:06;103162.97;;;2.33;100.00
37202;BME280;37799;52.390;6.136;2023-02-28T03:35:47;103170.50;;;2.30;100.00
37202;BME280;37799;52.390;6.136;2023-02-28T03:40:51;103158.47;;;2.28;100.00
37202;BME280;37799;52.390;6.136;2023-02-28T03:43:23;103157.53;;;2.26;100.00
37202;BME280;37799;52.390;6.136;2023-02-28T03:45:50;103165.63;;;2.35;100.00
37202;BME280;37799;52.390;6.136;2023-02-28T03:48:22;103158.66;;;2.32;100.00
37202;BME280;37799;52.390;6.136;2023-02-28T03:50:53;103169.56;;;2.28;100.00
37202;BME280;37799;52.390;6.136;2023-02-28T03:55:52;103175.63;;;2.30;100.00
37202;BME280;37799;52.390;6.136;2023-02-28T04:01:18;103166.75;;;2.22;100.00
37202;BME280;37799;52.390;6.136;2023-02-28T04:03:45;103162.56;;;2.24;100.00
37202;BME280;37799;52.390;6.136;2023-02-28T04:06:19;103153.72;;;2.18;100.00
37202;BME280;37799;52.390;6.136;2023-02-28T04:08:45;103159.94;;;2.23;100.00
37202;BME280;37799;52.390;6.136;2023-02-28T04:11:29;103164.19;;;2.22;100.00
37202;BME280;37799;52.390;6.136;2023-02-28T04:13:57;103156.34;;;2.19;100.00
37202;BME280;37799;52.390;6.136;2023-02-28T04:16:22;103162.28;;;2.18;100.00
37202;BME280;37799;52.390;6.136;2023-02-28T04:18:48;103157.97;;;2.17;100.00
37202;BME280;37799;52.390;6.136;2023-02-28T04:21:13;103164.03;;;2.19;100.00
37202;BME280;37799;52.390;6.136;2023-02-28T04:23:39;103160.41;;;2.14;100.00
37202;BME280;37799;52.390;6.136;2023-02-28T04:26:04;103166.31;;;2.13;100.00
37202;BME280;37799;52.390;6.136;2023-02-28T04:28:31;103165.50;;;2.14;100.00
37202;BME280;37799;52.390;6.136;2023-02-28T04:31:03;103160.25;;;2.11;100.00
37202;BME280;37799;52.390;6.136;2023-02-28T04:33:30;103156.16;;;2.15;100.00
37202;BME280;37799;52.390;6.136;2023-02-28T04:38:24;103153.16;;;2.05;100.00
37202;BME280;37799;52.390;6.136;2023-02-28T04:40:50;103147.69;;;2.16;100.00
37202;BME280;37799;52.390;6.136;2023-02-28T04:43:15;103157.91;;;2.16;100.00
37202;BME280;37799;52.390;6.136;2023-02-28T04:45:40;103161.19;;;2.13;100.00
37202;BME280;37799;52.390;6.136;2023-02-28T04:48:05;103172.78;;;2.24;100.00
37202;BME280;37799;52.390;6.136;2023-02-28T04:50:31;103170.25;;;2.06;100.00
37202;BME280;37799;52.390;6.136;2023-02-28T04:52:56;103167.13;;;2.12;100.00
37202;BME280;37799;52.390;6.136;2023-02-28T04:55:21;103162.75;;;2.10;100.00
37202;BME280;37799;52.390;6.136;2023-02-28T04:57:47;103164.44;;;2.09;100.00
37202;BME280;37799;52.390;6.136;2023-02-28T05:00:12;103159.91;;;2.03;100.00
37202;BME280;37799;52.390;6.136;2023-02-28T05:02:40;103155.38;;;1.98;100.00
37202;BME280;37799;52.390;6.136;2023-02-28T05:05:05;103159.63;;;1.97;100.00
37202;BME280;37799;52.390;6.136;2023-02-28T05:07:31;103167.06;;;1.93;100.00
37202;BME280;37799;52.390;6.136;2023-02-28T05:09:56;103161.13;;;1.94;100.00
37202;BME280;37799;52.390;6.136;2023-02-28T05:12:21;103158.97;;;2.01;100.00
37202;BME280;37799;52.390;6.136;2023-02-28T05:14:47;103168.97;;;1.97;100.00
37202;BME280;37799;52.390;6.136;2023-02-28T05:17:12;103164.88;;;2.00;100.00
37202;BME280;37799;52.390;6.136;2023-02-28T05:19:37;103157.22;;;2.00;100.00
37202;BME280;37799;52.390;6.136;2023-02-28T05:22:02;103153.56;;;1.95;100.00
37202;BME280;37799;52.390;6.136;2023-02-28T05:24:28;103147.28;;;1.89;100.00
37202;BME280;37799;52.390;6.136;2023-02-28T05:26:54;103161.00;;;1.91;100.00
37202;BME280;37799;52.390;6.136;2023-02-28T05:29:19;103163.50;;;1.89;100.00
37202;BME280;37799;52.390;6.136;2023-02-28T05:31:45;103150.72;;;1.89;100.00
37202;BME280;37799;52.390;6.136;2023-02-28T05:34:10;103156.63;;;1.88;100.00
37202;BME280;37799;52.390;6.136;2023-02-28T05:36:38;103167.97;;;1.75;100.00
37202;BME280;37799;52.390;6.136;2023-02-28T05:39:05;103161.59;;;1.85;100.00
37202;BME280;37799;52.390;6.136;2023-02-28T05:41:30;103162.41;;;1.84;100.00
37202;BME280;37799;52.390;6.136;2023-02-28T05:43:57;103156.34;;;1.82;100.00
37202;BME280;37799;52.390;6.136;2023-02-28T05:46:22;103165.31;;;1.92;100.00
37202;BME280;37799;52.390;6.136;2023-02-28T05:48:48;103166.84;;;1.88;100.00
37202;BME280;37799;52.390;6.136;2023-02-28T05:51:13;103169.91;;;1.81;100.00
37202;BME280;37799;52.390;6.136;2023-02-28T05:53:39;103175.81;;;1.80;100.00
37202;BME280;37799;52.390;6.136;2023-02-28T05:56:04;103167.28;;;1.80;100.00
37202;BME280;37799;52.390;6.136;2023-02-28T05:58:30;103171.38;;;1.76;100.00
37202;BME280;37799;52.390;6.136;2023-02-28T06:00:59;103167.47;;;1.83;100.00
37202;BME280;37799;52.390;6.136;2023-02-28T06:03:26;103162.19;;;1.80;100.00
37202;BME280;37799;52.390;6.136;2023-02-28T06:05:51;103169.03;;;1.81;100.00
37202;BME280;37799;52.390;6.136;2023-02-28T06:08:17;103163.34;;;1.68;100.00
37202;BME280;37799;52.390;6.136;2023-02-28T06:10:43;103159.84;;;1.66;100.00
37202;BME280;37799;52.390;6.136;2023-02-28T06:13:08;103166.56;;;1.64;100.00
37202;BME280;37799;52.390;6.136;2023-02-28T06:15:34;103175.03;;;1.63;100.00
37202;BME280;37799;52.390;6.136;2023-02-28T06:17:59;103173.34;;;1.64;100.00
37202;BME280;37799;52.390;6.136;2023-02-28T06:20:26;103182.19;;;1.70;100.00
37202;BME280;37799;52.390;6.136;2023-02-28T06:22:55;103167.88;;;1.74;100.00
37202;BME280;37799;52.390;6.136;2023-02-28T06:25:21;103167.69;;;1.69;100.00
37202;BME280;37799;52.390;6.136;2023-02-28T06:27:47;103167.16;;;1.76;100.00
37202;BME280;37799;52.390;6.136;2023-02-28T06:30:13;103171.25;;;1.73;100.00
37202;BME280;37799;52.390;6.136;2023-02-28T06:32:38;103167.28;;;1.80;100.00
37202;BME280;37799;52.390;6.136;2023-02-28T06:35:04;103167.88;;;1.74;100.00
37202;BME280;37799;52.390;6.136;2023-02-28T06:37:31;103178.97;;;1.74;100.00
37202;BME280;37799;52.390;6.136;2023-02-28T06:39:56;103181.81;;;1.81;100.00
37202;BME280;37799;52.390;6.136;2023-02-28T06:42:23;103192.84;;;1.80;100.00
37202;BME280;37799;52.390;6.136;2023-02-28T06:44:56;103190.94;;;1.75;100.00
37202;BME280;37799;52.390;6.136;2023-02-28T06:47:21;103190.59;;;1.86;100.00
37202;BME280;37799;52.390;6.136;2023-02-28T06:49:47;103199.88;;;1.84;100.00
37202;BME280;37799;52.390;6.136;2023-02-28T06:52:12;103206.84;;;1.88;100.00
37202;BME280;37799;52.390;6.136;2023-02-28T06:54:38;103200.13;;;1.90;100.00
37202;BME280;37799;52.390;6.136;2023-02-28T06:57:04;103209.56;;;1.91;100.00
37202;BME280;37799;52.390;6.136;2023-02-28T06:59:29;103203.63;;;1.92;100.00
37202;BME280;37799;52.390;6.136;2023-02-28T07:01:55;103203.50;;;1.89;100.00
37202;BME280;37799;52.390;6.136;2023-02-28T07:04:21;103205.25;;;1.90;100.00
37202;BME280;37799;52.390;6.136;2023-02-28T07:06:46;103204.00;;;1.99;100.00
37202;BME280;37799;52.390;6.136;2023-02-28T07:09:12;103193.25;;;2.06;100.00
37202;BME280;37799;52.390;6.136;2023-02-28T07:11:39;103191.94;;;2.15;100.00
37202;BME280;37799;52.390;6.136;2023-02-28T07:14:04;103209.16;;;2.19;100.00
37202;BME280;37799;52.390;6.136;2023-02-28T07:16:29;103214.72;;;2.28;100.00
37202;BME280;37799;52.390;6.136;2023-02-28T07:18:55;103212.88;;;2.25;100.00
37202;BME280;37799;52.390;6.136;2023-02-28T07:21:20;103207.25;;;2.32;100.00
37202;BME280;37799;52.390;6.136;2023-02-28T07:23:46;103210.28;;;2.43;100.00
37202;BME280;37799;52.390;6.136;2023-02-28T07:26:14;103225.19;;;2.52;100.00
37202;BME280;37799;52.390;6.136;2023-02-28T07:28:41;103221.63;;;2.48;100.00
37202;BME280;37799;52.390;6.136;2023-02-28T07:31:08;103226.63;;;2.47;100.00
37202;BME280;37799;52.390;6.136;2023-02-28T07:33:34;103222.56;;;2.50;100.00
37202;BME280;37799;52.390;6.136;2023-02-28T07:36:05;103231.31;;;2.55;100.00
37202;BME280;37799;52.390;6.136;2023-02-28T07:38:34;103223.63;;;2.55;100.00
37202;BME280;37799;52.390;6.136;2023-02-28T07:40:59;103225.88;;;2.67;100.00
37202;BME280;37799;52.390;6.136;2023-02-28T07:43:24;103219.53;;;2.78;100.00
37202;BME280;37799;52.390;6.136;2023-02-28T07:45:50;103226.50;;;3.00;100.00
37202;BME280;37799;52.390;6.136;2023-02-28T07:48:15;103233.38;;;3.22;100.00
37202;BME280;37799;52.390;6.136;2023-02-28T07:50:40;103244.19;;;3.36;100.00
37202;BME280;37799;52.390;6.136;2023-02-28T07:53:06;103246.16;;;3.41;100.00
37202;BME280;37799;52.390;6.136;2023-02-28T07:55:31;103251.75;;;3.52;100.00
37202;BME280;37799;52.390;6.136;2023-02-28T07:57:57;103246.53;;;3.71;100.00
37202;BME280;37799;52.390;6.136;2023-02-28T08:00:23;103248.78;;;3.84;100.00
37202;BME280;37799;52.390;6.136;2023-02-28T08:02:49;103251.41;;;3.86;100.00
37202;BME280;37799;52.390;6.136;2023-02-28T08:05:14;103259.53;;;3.97;100.00
37202;BME280;37799;52.390;6.136;2023-02-28T08:07:40;103260.78;;;4.06;100.00
37202;BME280;37799;52.390;6.136;2023-02-28T08:10:06;103254.72;;;4.27;100.00
37202;BME280;37799;52.390;6.136;2023-02-28T08:12:31;103256.94;;;4.40;100.00
37202;BME280;37799;52.390;6.136;2023-02-28T08:14:56;103254.03;;;4.53;100.00
37202;BME280;37799;52.390;6.136;2023-02-28T08:17:22;103255.59;;;4.72;100.00
37202;BME280;37799;52.390;6.136;2023-02-28T08:19:47;103258.00;;;5.15;100.00
37202;BME280;37799;52.390;6.136;2023-02-28T08:22:12;103281.53;;;6.02;100.00
37202;BME280;37799;52.390;6.136;2023-02-28T08:24:41;103275.41;;;6.84;100.00
37202;BME280;37799;52.390;6.136;2023-02-28T08:27:06;103285.19;;;7.59;100.00
37202;BME280;37799;52.390;6.136;2023-02-28T08:29:31;103292.50;;;8.13;100.00
37202;BME280;37799;52.390;6.136;2023-02-28T08:31:57;103297.13;;;8.64;95.49
37202;BME280;37799;52.390;6.136;2023-02-28T08:34:23;103297.41;;;8.76;91.20
37202;BME280;37799;52.390;6.136;2023-02-28T08:36:49;103312.97;;;8.41;80.05
37202;BME280;37799;52.390;6.136;2023-02-28T08:39:14;103316.69;;;8.16;79.17
37202;BME280;37799;52.390;6.136;2023-02-28T08:41:42;103320.19;;;7.84;78.74
37202;BME280;37799;52.390;6.136;2023-02-28T08:44:07;103321.25;;;7.92;71.01
37202;BME280;37799;52.390;6.136;2023-02-28T08:46:32;103321.50;;;7.35;65.59
37202;BME280;37799;52.390;6.136;2023-02-28T08:48:58;103313.19;;;7.15;67.12
37202;BME280;37799;52.390;6.136;2023-02-28T08:51:25;103313.84;;;7.06;64.89
37202;BME280;37799;52.390;6.136;2023-02-28T08:54:01;103315.38;;;7.01;64.22
37202;BME280;37799;52.390;6.136;2023-02-28T08:56:28;103322.97;;;6.95;64.09
37202;BME280;37799;52.390;6.136;2023-02-28T08:58:55;103323.03;;;6.98;64.37
37202;BME280;37799;52.390;6.136;2023-02-28T09:01:26;103314.25;;;6.90;62.65
37202;BME280;37799;52.390;6.136;2023-02-28T09:03:53;103314.13;;;6.87;63.28
37202;BME280;37799;52.390;6.136;2023-02-28T09:06:20;103315.25;;;7.27;61.79
37202;BME280;37799;52.390;6.136;2023-02-28T09:08:45;103320.53;;;7.64;59.33
37202;BME280;37799;52.390;6.136;2023-02-28T09:11:11;103319.06;;;7.73;56.50
37202;BME280;37799;52.390;6.136;2023-02-28T09:13:37;103322.19;;;7.61;57.44
37202;BME280;37799;52.390;6.136;2023-02-28T09:16:06;103326.25;;;7.53;56.84
37202;BME280;37799;52.390;6.136;2023-02-28T09:18:34;103323.38;;;7.42;57.19
37202;BME280;37799;52.390;6.136;2023-02-28T09:21:03;103318.25;;;7.10;58.25
37202;BME280;37799;52.390;6.136;2023-02-28T09:23:29;103332.28;;;6.90;53.76
37202;BME280;37799;52.390;6.136;2023-02-28T09:25:55;103328.75;;;6.88;54.89
37202;BME280;37799;52.390;6.136;2023-02-28T09:28:21;103330.69;;;6.95;49.36
37202;BME280;37799;52.390;6.136;2023-02-28T09:30:49;103319.06;;;7.09;47.08
37202;BME280;37799;52.390;6.136;2023-02-28T09:33:15;103327.91;;;7.18;46.14
37202;BME280;37799;52.390;6.136;2023-02-28T09:35:41;103327.63;;;7.08;46.81
37202;BME280;37799;52.390;6.136;2023-02-28T09:38:08;103336.00;;;6.71;46.47
37202;BME280;37799;52.390;6.136;2023-02-28T09:40:37;103330.78;;;6.98;46.95
37202;BME280;37799;52.390;6.136;2023-02-28T09:43:04;103324.56;;;7.22;46.70
37202;BME280;37799;52.390;6.136;2023-02-28T09:45:37;103325.66;;;7.30;44.29
37202;BME280;37799;52.390;6.136;2023-02-28T09:48:28;103318.03;;;7.67;44.92
37202;BME280;37799;52.390;6.136;2023-02-28T09:51:03;103330.53;;;7.52;45.44
37202;BME280;37799;52.390;6.136;2023-02-28T09:53:32;103332.84;;;7.75;44.46
37202;BME280;37799;52.390;6.136;2023-02-28T09:56:02;103332.97;;;7.79;45.53
37202;BME280;37799;52.390;6.136;2023-02-28T09:58:47;103331.78;;;8.01;44.64
37202;BME280;37799;52.390;6.136;2023-02-28T10:01:42;103332.53;;;7.95;42.22
37202;BME280;37799;52.390;6.136;2023-02-28T10:06:50;103333.44;;;8.34;42.77
37202;BME280;37799;52.390;6.136;2023-02-28T10:09:22;103325.00;;;8.78;42.23
37202;BME280;37799;52.390;6.136;2023-02-28T10:11:51;103316.97;;;9.07;41.74
37202;BME280;37799;52.390;6.136;2023-02-28T10:14:22;103324.16;;;9.22;40.28
37202;BME280;37799;52.390;6.136;2023-02-28T10:16:55;103325.84;;;9.21;38.60
37202;BME280;37799;52.390;6.136;2023-02-28T10:19:25;103331.28;;;8.91;39.82
37202;BME280;37799;52.390;6.136;2023-02-28T10:22:00;103330.47;;;8.94;40.78
37202;BME280;37799;52.390;6.136;2023-02-28T10:24:33;103333.22;;;9.01;37.74
37202;BME280;37799;52.390;6.136;2023-02-28T10:27:06;103329.38;;;8.82;37.80
37202;BME280;37799;52.390;6.136;2023-02-28T10:29:36;103321.47;;;9.15;39.48
37202;BME280;37799;52.390;6.136;2023-02-28T10:32:03;103315.06;;;9.42;41.17
37202;BME280;37799;52.390;6.136;2023-02-28T10:34:29;103312.41;;;9.89;40.07
37202;BME280;37799;52.390;6.136;2023-02-28T10:36:54;103318.81;;;10.11;37.86
37202;BME280;37799;52.390;6.136;2023-02-28T10:39:40;103311.63;;;9.91;37.53
37202;BME280;37799;52.390;6.136;2023-02-28T10:42:22;103317.09;;;10.11;37.33
37202;BME280;37799;52.390;6.136;2023-02-28T10:45:04;103306.88;;;10.19;36.70
37202;BME280;37799;52.390;6.136;2023-02-28T10:47:31;103309.56;;;10.23;36.27
37202;BME280;37799;52.390;6.136;2023-02-28T10:49:58;103302.22;;;9.98;36.20
37202;BME280;37799;52.390;6.136;2023-02-28T10:52:39;103303.66;;;9.81;37.17
37202;BME280;37799;52.390;6.136;2023-02-28T10:55:25;103295.44;;;10.04;36.51
37202;BME280;37799;52.390;6.136;2023-02-28T10:57:51;103294.25;;;10.40;38.51
37202;BME280;37799;52.390;6.136;2023-02-28T11:02:00;103292.81;;;10.62;36.74
37202;BME280;37799;52.390;6.136;2023-02-28T11:07:00;103290.66;;;10.94;36.57
37202;BME280;37799;52.390;6.136;2023-02-28T11:09:28;103292.81;;;11.36;34.66
37202;BME280;37799;52.390;6.136;2023-02-28T11:11:55;103291.09;;;11.37;34.64
37202;BME280;37799;52.390;6.136;2023-02-28T11:14:32;103286.81;;;11.40;35.26
37202;BME280;37799;52.390;6.136;2023-02-28T11:17:11;103278.66;;;11.05;35.08
37202;BME280;37799;52.390;6.136;2023-02-28T11:19:45;103273.22;;;10.81;36.05
37202;BME280;37799;52.390;6.136;2023-02-28T11:22:18;103266.91;;;10.62;36.37
37202;BME280;37799;52.390;6.136;2023-02-28T11:24:47;103257.72;;;10.87;37.61
37202;BME280;37799;52.390;6.136;2023-02-28T11:29:59;103259.88;;;11.26;37.48
37202;BME280;37799;52.390;6.136;2023-02-28T11:32:26;103265.63;;;10.99;36.14
37202;BME280;37799;52.390;6.136;2023-02-28T11:35:27;103264.38;;;10.67;37.44
37202;BME280;37799;52.390;6.136;2023-02-28T11:37:53;103263.00;;;10.28;35.94
37202;BME280;37799;52.390;6.136;2023-02-28T11:40:26;103262.75;;;10.13;36.55
37202;BME280;37799;52.390;6.136;2023-02-28T11:43:00;103253.75;;;9.88;37.16
37202;BME280;37799;52.390;6.136;2023-02-28T11:45:42;103250.38;;;9.92;37.15
37202;BME280;37799;52.390;6.136;2023-02-28T11:56:57;103246.88;;;10.47;37.77
37202;BME280;37799;52.390;6.136;2023-02-28T11:59:47;103234.75;;;10.46;38.06
37202;BME280;37799;52.390;6.136;2023-02-28T12:02:38;103241.56;;;10.38;37.28
37202;BME280;37799;52.390;6.136;2023-02-28T12:05:25;103233.88;;;10.44;37.00
37202;BME280;37799;52.390;6.136;2023-02-28T12:16:41;103236.56;;;9.38;37.96
37202;BME280;37799;52.390;6.136;2023-02-28T12:22:09;103225.00;;;9.20;40.22
37202;BME280;37799;52.390;6.136;2023-02-28T12:25:14;103228.41;;;8.72;38.92
37202;BME280;37799;52.390;6.136;2023-02-28T12:27:46;103219.81;;;8.32;40.29
37202;BME280;37799;52.390;6.136;2023-02-28T12:30:27;103222.34;;;8.31;39.20
37202;BME280;37799;52.390;6.136;2023-02-28T12:33:14;103219.94;;;8.35;40.49
37202;BME280;37799;52.390;6.136;2023-02-28T12:35:56;103214.97;;;8.46;41.48
37202;BME280;37799;52.390;6.136;2023-02-28T12:38:29;103215.44;;;8.29;41.97
37202;BME280;37799;52.390;6.136;2023-02-28T12:41:05;103208.44;;;8.22;42.19
37202;BME280;37799;52.390;6.136;2023-02-28T12:43:38;103203.28;;;8.24;40.71
37202;BME280;37799;52.390;6.136;2023-02-28T12:46:12;103204.50;;;8.38;41.65
37202;BME280;37799;52.390;6.136;2023-02-28T12:49:07;103204.16;;;8.24;39.75
37202;BME280;37799;52.390;6.136;2023-02-28T12:51:35;103207.34;;;8.13;41.78
37202;BME280;37799;52.390;6.136;2023-02-28T12:56:45;103180.19;;;8.30;42.77
37202;BME280;37799;52.390;6.136;2023-02-28T13:02:02;103186.75;;;8.16;41.22
37202;BME280;37799;52.390;6.136;2023-02-28T13:05:00;103177.56;;;8.28;40.31
37202;BME280;37799;52.390;6.136;2023-02-28T13:10:20;103185.69;;;8.06;40.60
37202;BME280;37799;52.390;6.136;2023-02-28T13:12:50;103173.19;;;8.24;42.14
37202;BME280;37799;52.390;6.136;2023-02-28T13:17:41;103172.63;;;8.36;40.45
37202;BME280;37799;52.390;6.136;2023-02-28T13:20:22;103172.16;;;8.16;41.29
37202;BME280;37799;52.390;6.136;2023-02-28T13:22:49;103172.38;;;8.27;41.20
37202;BME280;37799;52.390;6.136;2023-02-28T13:27:58;103166.47;;;8.33;41.80
37202;BME280;37799;52.390;6.136;2023-02-28T13:33:23;103168.88;;;8.23;40.44
37202;BME280;37799;52.390;6.136;2023-02-28T13:46:28;103159.22;;;8.15;42.41
37202;BME280;37799;52.390;6.136;2023-02-28T13:48:53;103152.25;;;8.11;42.85
37202;BME280;37799;52.390;6.136;2023-02-28T13:51:40;103158.84;;;7.96;42.89
37202;BME280;37799;52.390;6.136;2023-02-28T13:54:28;103152.44;;;7.81;43.29
37202;BME280;37799;52.390;6.136;2023-02-28T13:59:47;103146.34;;;7.77;43.93
37202;BME280;37799;52.390;6.136;2023-02-28T14:02:23;103142.78;;;7.71;43.80
37202;BME280;37799;52.390;6.136;2023-02-28T14:05:20;103141.78;;;7.65;44.04
37202;BME280;37799;52.390;6.136;2023-02-28T14:07:53;103147.63;;;7.57;44.93
37202;BME280;37799;52.390;6.136;2023-02-28T14:10:31;103138.06;;;7.54;44.49
37202;BME280;37799;52.390;6.136;2023-02-28T14:13:10;103140.84;;;7.26;45.23
37202;BME280;37799;52.390;6.136;2023-02-28T14:15:55;103133.81;;;7.19;45.16
37202;BME280;37799;52.390;6.136;2023-02-28T14:18:22;103140.50;;;7.12;46.32
37202;BME280;37799;52.390;6.136;2023-02-28T14:20:53;103136.50;;;7.23;45.42
37202;BME280;37799;52.390;6.136;2023-02-28T14:31:32;103124.63;;;6.95;46.63
37202;BME280;37799;52.390;6.136;2023-02-28T14:34:20;103125.94;;;6.79;47.17
37202;BME280;37799;52.390;6.136;2023-02-28T14:36:50;103124.19;;;6.78;47.75
37202;BME280;37799;52.390;6.136;2023-02-28T14:39:20;103123.91;;;6.68;48.27
37202;BME280;37799;52.390;6.136;2023-02-28T14:41:47;103123.22;;;6.75;48.46
37202;BME280;37799;52.390;6.136;2023-02-28T14:44:16;103123.84;;;6.65;48.43
37202;BME280;37799;52.390;6.136;2023-02-28T14:46:42;103113.69;;;6.71;50.39
37202;BME280;37799;52.390;6.136;2023-02-28T14:49:28;103123.53;;;6.87;48.39
37202;BME280;37799;52.390;6.136;2023-02-28T14:52:12;103118.19;;;6.78;49.32
37202;BME280;37799;52.390;6.136;2023-02-28T14:54:40;103120.81;;;6.81;47.93